Time;durP1;ratioP1;P1;durP2;ratioP2;P2;SDS_P1;SDS_P2;PMS_P1;PMS_P2;Temp;Humidity;BMP_temperature;BMP_pressure;BME280_temperature;BME280_humidity;BME280_pressure;Samples;Min_cycle;Max_cycle;Signal;HPM_P1;HPM_P2
2020/12/04 00:00:38;;;;;;;28.33;16.70;;;;;;;;;;5056886;28;20180;-89
2020/12/04 00:03:10;;;;;;;23.73;15.47;;;;;;;;;;5051856;28;20187;-89
2020/12/04 00:05:36;;;;;;;24.27;15.47;;;;;;;;;;5053451;28;20227;-89
2020/12/04 00:08:05;;;;;;;23.37;16.07;;;;;;;;;;5054928;28;20199;-89
2020/12/04 00:10:33;;;;;;;22.43;15.63;;;;;;;;;;5054451;28;20175;-90
2020/12/04 00:13:01;;;;;;;25.93;15.90;;;;;;;;;;5055952;28;20244;-89
2020/12/04 00:15:32;;;;;;;25.40;16.73;;;;;;;;;;5059723;28;20187;-89
2020/12/04 00:18:01;;;;;;;23.30;16.03;;;;;;;;;;5052382;28;20201;-89
2020/12/04 00:20:31;;;;;;;24.93;15.17;;;;;;;;;;5051376;28;20179;-88
2020/12/04 00:23:01;;;;;;;23.50;16.27;;;;;;;;;;5053290;28;20168;-89
2020/12/04 00:25:29;;;;;;;23.60;16.73;;;;;;;;;;5052839;28;20174;-88
2020/12/04 00:27:58;;;;;;;23.60;15.97;;;;;;;;;;5051074;28;20338;-89
2020/12/04 00:30:27;;;;;;;25.80;17.57;;;;;;;;;;5050734;28;20183;-90
2020/12/04 00:32:59;;;;;;;24.70;16.67;;;;;;;;;;5050462;28;20322;-89
2020/12/04 00:35:28;;;;;;;21.73;15.63;;;;;;;;;;5035731;28;20179;-89
2020/12/04 00:37:54;;;;;;;27.23;17.23;;;;;;;;;;5051591;28;20200;-89
2020/12/04 00:40:28;;;;;;;24.47;16.07;;;;;;;;;;5052906;28;20324;-89
2020/12/04 00:42:56;;;;;;;23.97;16.97;;;;;;;;;;5050417;28;20180;-89
2020/12/04 00:45:27;;;;;;;24.57;16.13;;;;;;;;;;5051691;28;20180;-89
2020/12/04 00:47:53;;;;;;;21.90;15.20;;;;;;;;;;5052007;28;20204;-90
2020/12/04 00:50:20;;;;;;;20.63;15.93;;;;;;;;;;5050616;28;20177;-89
2020/12/04 00:52:49;;;;;;;21.43;14.50;;;;;;;;;;5036062;28;20167;-89
2020/12/04 00:55:16;;;;;;;24.07;15.37;;;;;;;;;;5051854;28;20714;-89
2020/12/04 00:57:44;;;;;;;22.43;15.50;;;;;;;;;;5051375;28;20224;-89
2020/12/04 01:00:10;;;;;;;20.40;14.50;;;;;;;;;;5052193;28;20177;-89
2020/12/04 01:02:37;;;;;;;24.03;15.90;;;;;;;;;;5050618;28;20234;-89
2020/12/04 01:05:03;;;;;;;24.77;15.60;;;;;;;;;;5050612;28;20182;-89
2020/12/04 01:07:32;;;;;;;22.07;15.70;;;;;;;;;;5050475;28;20207;-89
2020/12/04 01:09:58;;;;;;;21.97;14.17;;;;;;;;;;5051419;28;20264;-89
2020/12/04 01:12:27;;;;;;;24.67;15.57;;;;;;;;;;5052444;28;20186;-89
2020/12/04 01:14:57;;;;;;;21.53;14.80;;;;;;;;;;5058181;28;20202;-89
2020/12/04 01:17:27;;;;;;;24.73;15.03;;;;;;;;;;5056763;28;20202;-89
2020/12/04 01:19:57;;;;;;;21.93;15.30;;;;;;;;;;5053652;28;20226;-89
2020/12/04 01:22:26;;;;;;;27.23;15.40;;;;;;;;;;5050663;28;20173;-88
2020/12/04 01:24:53;;;;;;;25.90;14.10;;;;;;;;;;5050850;28;20177;-89
2020/12/04 01:27:25;;;;;;;24.43;15.30;;;;;;;;;;5049615;28;20212;-88
2020/12/04 01:29:55;;;;;;;23.83;14.87;;;;;;;;;;5034297;28;20175;-88
2020/12/04 01:32:27;;;;;;;21.60;14.57;;;;;;;;;;5051959;28;20173;-88
2020/12/04 01:34:59;;;;;;;18.07;13.03;;;;;;;;;;5061111;28;20182;-89
2020/12/04 01:37:35;;;;;;;25.47;14.37;;;;;;;;;;5058755;28;20208;-88
2020/12/04 01:40:08;;;;;;;19.93;14.50;;;;;;;;;;5051297;28;20269;-89
2020/12/04 01:42:40;;;;;;;22.33;15.73;;;;;;;;;;5049725;28;20265;-89
2020/12/04 01:45:11;;;;;;;25.97;16.77;;;;;;;;;;5051660;28;20179;-89
2020/12/04 01:47:44;;;;;;;22.57;16.10;;;;;;;;;;5050962;28;20213;-89
2020/12/04 01:50:10;;;;;;;22.17;15.17;;;;;;;;;;5049173;28;20252;-89
2020/12/04 01:52:45;;;;;;;24.53;16.17;;;;;;;;;;5049975;28;20182;-89
2020/12/04 01:55:17;;;;;;;26.93;17.00;;;;;;;;;;5049030;28;20172;-89
2020/12/04 01:57:47;;;;;;;25.23;16.63;;;;;;;;;;5050133;28;20204;-88
2020/12/04 02:00:19;;;;;;;27.40;17.40;;;;;;;;;;5051449;28;20614;-89
2020/12/04 02:02:51;;;;;;;25.70;14.43;;;;;;;;;;5034147;28;20169;-89
2020/12/04 02:05:25;;;;;;;22.43;15.00;;;;;;;;;;5049133;28;20178;-88
2020/12/04 02:08:10;;;;;;;22.97;15.03;;;;;;;;;;5034794;28;20189;-88
2020/12/04 02:10:45;;;;;;;24.60;16.07;;;;;;;;;;5049741;28;20169;-88
2020/12/04 02:13:19;;;;;;;22.17;15.07;;;;;;;;;;5049016;28;20169;-88
2020/12/04 02:15:48;;;;;;;24.03;15.50;;;;;;;;;;5033537;28;20557;-88
2020/12/04 02:18:20;;;;;;;22.97;14.77;;;;;;;;;;5033472;28;20196;-88
2020/12/04 02:21:00;;;;;;;24.67;14.23;;;;;;;;;;5048670;28;20229;-88
2020/12/04 02:23:31;;;;;;;27.13;15.60;;;;;;;;;;5049162;28;20233;-88
2020/12/04 02:26:01;;;;;;;25.43;16.20;;;;;;;;;;5048566;28;20197;-88
2020/12/04 02:28:33;;;;;;;26.37;16.33;;;;;;;;;;5048759;28;20676;-88
2020/12/04 02:31:05;;;;;;;23.00;15.80;;;;;;;;;;5048750;28;20255;-88
2020/12/04 02:33:37;;;;;;;19.57;12.23;;;;;;;;;;5048851;28;20177;-88
2020/12/04 02:36:10;;;;;;;20.23;12.30;;;;;;;;;;5048423;28;20188;-88
2020/12/04 02:38:39;;;;;;;26.50;14.53;;;;;;;;;;5048637;28;20251;-88
2020/12/04 02:41:12;;;;;;;18.80;13.23;;;;;;;;;;5033132;28;20181;-88
2020/12/04 02:43:45;;;;;;;23.93;14.20;;;;;;;;;;5033064;28;20626;-88
2020/12/04 02:46:14;;;;;;;25.23;15.63;;;;;;;;;;5048319;28;20250;-88
2020/12/04 02:48:45;;;;;;;24.83;15.80;;;;;;;;;;5048381;28;20177;-87
2020/12/04 02:51:14;;;;;;;26.30;16.50;;;;;;;;;;5048328;28;20593;-88
2020/12/04 02:53:45;;;;;;;25.93;16.17;;;;;;;;;;5048290;28;20652;-88
2020/12/04 02:56:19;;;;;;;23.33;15.43;;;;;;;;;;5048525;28;20178;-88
2020/12/04 02:58:51;;;;;;;23.93;13.57;;;;;;;;;;5033318;28;20152;-88
2020/12/04 03:01:24;;;;;;;28.80;16.93;;;;;;;;;;5048365;28;20183;-88
2020/12/04 03:03:59;;;;;;;27.30;16.17;;;;;;;;;;5048581;28;20173;-88
2020/12/04 03:06:29;;;;;;;26.83;16.20;;;;;;;;;;5049437;28;20199;-88
2020/12/04 03:09:01;;;;;;;24.80;15.57;;;;;;;;;;5052233;28;20645;-88
2020/12/04 03:11:33;;;;;;;25.40;13.63;;;;;;;;;;5052187;28;20255;-88
2020/12/04 03:14:10;;;;;;;27.20;16.27;;;;;;;;;;5052163;28;20168;-88
2020/12/04 03:16:41;;;;;;;28.80;18.47;;;;;;;;;;5036823;28;20246;-88
2020/12/04 03:19:11;;;;;;;23.40;14.47;;;;;;;;;;5052118;28;20259;-88
2020/12/04 03:21:42;;;;;;;29.50;17.63;;;;;;;;;;5051972;28;20260;-87
2020/12/04 03:24:13;;;;;;;28.67;18.10;;;;;;;;;;5052119;28;20184;-87
2020/12/04 03:26:45;;;;;;;28.40;16.93;;;;;;;;;;5052314;28;20208;-87
2020/12/04 03:29:15;;;;;;;24.33;14.97;;;;;;;;;;5051832;28;20181;-88
2020/12/04 03:31:46;;;;;;;29.23;17.63;;;;;;;;;;5051673;28;20177;-88
2020/12/04 03:34:18;;;;;;;28.13;17.40;;;;;;;;;;5036647;28;20168;-87
2020/12/04 03:36:49;;;;;;;27.30;17.30;;;;;;;;;;5036136;28;20702;-88
2020/12/04 03:39:22;;;;;;;29.90;17.70;;;;;;;;;;5051504;28;20307;-87
2020/12/04 03:41:54;;;;;;;23.13;12.57;;;;;;;;;;5051513;28;20176;-87
2020/12/04 03:44:26;;;;;;;28.13;16.93;;;;;;;;;;5051437;28;20520;-88
2020/12/04 03:47:00;;;;;;;22.00;15.17;;;;;;;;;;5051967;28;20212;-88
2020/12/04 03:49:31;;;;;;;34.53;18.60;;;;;;;;;;5051678;28;20169;-88
2020/12/04 03:51:58;;;;;;;20.73;14.37;;;;;;;;;;5051439;28;20528;-88
2020/12/04 03:54:36;;;;;;;31.10;17.73;;;;;;;;;;5051389;28;20188;-88
2020/12/04 03:57:09;;;;;;;19.13;12.13;;;;;;;;;;5035885;28;20200;-88
2020/12/04 03:59:35;;;;;;;28.63;16.07;;;;;;;;;;5051440;28;20183;-87
2020/12/04 04:02:08;;;;;;;31.67;17.47;;;;;;;;;;5051116;28;20184;-87
2020/12/04 04:04:39;;;;;;;34.23;16.77;;;;;;;;;;5051106;28;20183;-87
2020/12/04 04:07:10;;;;;;;35.57;18.53;;;;;;;;;;5051453;28;20582;-88
2020/12/04 04:09:41;;;;;;;31.17;16.53;;;;;;;;;;5035953;28;20213;-88
2020/12/04 04:12:11;;;;;;;29.23;18.73;;;;;;;;;;5051011;28;20675;-87
2020/12/04 04:14:37;;;;;;;27.27;17.13;;;;;;;;;;5051218;28;20177;-87
2020/12/04 04:17:10;;;;;;;26.03;16.93;;;;;;;;;;5050675;28;20211;-88
2020/12/04 04:19:41;;;;;;;22.37;13.63;;;;;;;;;;5050846;28;20176;-87
2020/12/04 04:22:11;;;;;;;18.83;10.90;;;;;;;;;;5050666;28;20182;-87
2020/12/04 04:24:40;;;;;;;30.20;17.47;;;;;;;;;;5050763;28;20199;-87
2020/12/04 04:27:09;;;;;;;28.50;15.83;;;;;;;;;;5079774;22;20599;-88
2020/12/04 04:29:38;;;;;;;30.30;18.47;;;;;;;;;;5056006;28;20206;-87
2020/12/04 04:32:10;;;;;;;26.60;15.10;;;;;;;;;;5055772;28;20176;-88
2020/12/04 04:34:41;;;;;;;30.50;17.60;;;;;;;;;;5055570;28;20225;-88
2020/12/04 04:37:11;;;;;;;31.33;17.40;;;;;;;;;;5054439;28;20200;-87
2020/12/04 04:39:44;;;;;;;24.23;15.40;;;;;;;;;;5055566;28;20175;-88
2020/12/04 04:42:15;;;;;;;28.23;16.97;;;;;;;;;;5055884;28;20180;-88
2020/12/04 04:44:43;;;;;;;30.47;17.97;;;;;;;;;;5054327;28;20183;-87
2020/12/04 04:47:27;;;;;;;27.27;15.47;;;;;;;;;;5055367;28;20213;-88
2020/12/04 04:49:59;;;;;;;25.40;15.90;;;;;;;;;;5054111;28;20180;-87
2020/12/04 04:52:31;;;;;;;37.20;18.90;;;;;;;;;;5054053;28;20176;-88
2020/12/04 04:55:05;;;;;;;26.80;13.57;;;;;;;;;;5055328;28;20172;-88
2020/12/04 04:57:37;;;;;;;31.70;16.37;;;;;;;;;;5054011;28;20227;-87
2020/12/04 05:00:11;;;;;;;26.40;16.27;;;;;;;;;;5054161;28;20180;-87
2020/12/04 05:02:47;;;;;;;26.83;16.23;;;;;;;;;;5055360;28;20259;-88
2020/12/04 05:05:18;;;;;;;31.57;19.10;;;;;;;;;;5055061;28;20180;-87
2020/12/04 05:07:51;;;;;;;25.00;13.73;;;;;;;;;;5053533;28;20211;-88
2020/12/04 05:10:25;;;;;;;33.93;17.10;;;;;;;;;;5053946;28;20214;-87
2020/12/04 05:13:03;;;;;;;16.83;10.83;;;;;;;;;;5054932;28;20172;-88
2020/12/04 05:15:33;;;;;;;28.87;15.13;;;;;;;;;;5053721;28;20262;-88
2020/12/04 05:18:03;;;;;;;13.83;10.33;;;;;;;;;;5054728;28;20541;-87
2020/12/04 05:20:35;;;;;;;29.40;16.13;;;;;;;;;;5054178;28;20187;-87
2020/12/04 05:23:08;;;;;;;29.77;16.37;;;;;;;;;;5054151;28;20267;-88
2020/12/04 05:25:43;;;;;;;29.23;16.23;;;;;;;;;;5054150;28;20176;-87
2020/12/04 05:28:19;;;;;;;29.60;16.97;;;;;;;;;;5053674;28;20303;-88
2020/12/04 05:30:55;;;;;;;29.17;16.30;;;;;;;;;;5054308;28;20172;-87
2020/12/04 05:33:31;;;;;;;27.10;15.10;;;;;;;;;;5053746;28;20175;-87
2020/12/04 05:36:02;;;;;;;24.80;16.10;;;;;;;;;;5054128;28;20203;-88
2020/12/04 05:38:37;;;;;;;25.90;14.87;;;;;;;;;;5053451;28;20203;-87
2020/12/04 05:41:10;;;;;;;28.03;16.43;;;;;;;;;;5055532;28;20235;-88
2020/12/04 05:43:41;;;;;;;28.30;16.03;;;;;;;;;;5053522;28;20715;-87
2020/12/04 05:46:23;;;;;;;22.93;14.83;;;;;;;;;;5053456;28;20196;-88
2020/12/04 05:49:04;;;;;;;27.50;16.40;;;;;;;;;;5053449;28;20286;-88
2020/12/04 05:51:34;;;;;;;23.00;13.67;;;;;;;;;;5054611;28;20183;-88
2020/12/04 05:54:09;;;;;;;29.73;16.67;;;;;;;;;;5053719;28;20267;-87
2020/12/04 05:56:46;;;;;;;25.73;14.33;;;;;;;;;;5054800;28;20233;-88
2020/12/04 05:59:14;;;;;;;24.80;14.73;;;;;;;;;;5053673;28;20188;-87
2020/12/04 06:01:49;;;;;;;28.40;16.67;;;;;;;;;;5054672;28;20177;-87
2020/12/04 06:04:26;;;;;;;29.87;15.97;;;;;;;;;;5054660;28;20179;-87
2020/12/04 06:07:01;;;;;;;29.70;18.13;;;;;;;;;;5053218;28;20294;-87
2020/12/04 06:09:40;;;;;;;22.27;15.13;;;;;;;;;;5053271;28;20181;-87
2020/12/04 06:12:11;;;;;;;34.37;19.17;;;;;;;;;;5053217;28;20173;-87
2020/12/04 06:14:39;;;;;;;26.90;15.83;;;;;;;;;;5053256;28;20179;-87
2020/12/04 06:17:11;;;;;;;28.37;17.90;;;;;;;;;;5053206;28;20199;-88
2020/12/04 06:19:40;;;;;;;26.47;17.73;;;;;;;;;;5053096;28;20176;-88
2020/12/04 06:22:26;;;;;;;32.47;20.63;;;;;;;;;;5055205;28;20174;-87
2020/12/04 06:25:01;;;;;;;30.13;18.50;;;;;;;;;;5052817;28;20271;-88
2020/12/04 06:27:44;;;;;;;32.40;16.47;;;;;;;;;;5052750;28;20233;-88
2020/12/04 06:30:21;;;;;;;26.90;17.07;;;;;;;;;;5053804;28;20214;-87
2020/12/04 06:32:53;;;;;;;32.03;18.63;;;;;;;;;;5053040;28;20655;-88
2020/12/04 06:35:41;;;;;;;28.17;17.87;;;;;;;;;;5054769;28;20195;-87
2020/12/04 06:38:29;;;;;;;29.27;17.80;;;;;;;;;;5053328;28;20578;-88
2020/12/04 06:41:16;;;;;;;33.70;19.60;;;;;;;;;;5053544;28;20179;-88
2020/12/04 06:43:49;;;;;;;29.27;18.40;;;;;;;;;;5053503;28;20712;-88
2020/12/04 06:46:35;;;;;;;30.83;19.33;;;;;;;;;;5052932;28;20199;-88
2020/12/04 06:52:09;;;;;;;30.43;19.17;;;;;;;;;;5054449;28;20191;-88
2020/12/04 06:54:38;;;;;;;32.53;19.07;;;;;;;;;;5054997;28;20170;-87
2020/12/04 06:57:07;;;;;;;29.83;18.30;;;;;;;;;;5055873;28;20196;-87
2020/12/04 06:59:38;;;;;;;29.43;18.17;;;;;;;;;;5056041;28;20241;-87
2020/12/04 07:02:18;;;;;;;31.90;18.17;;;;;;;;;;5054796;28;20187;-88
2020/12/04 07:04:52;;;;;;;34.50;19.20;;;;;;;;;;5053134;28;20191;-88
2020/12/04 07:07:33;;;;;;;31.83;17.90;;;;;;;;;;5053721;28;20708;-88
2020/12/04 07:10:05;;;;;;;29.67;17.93;;;;;;;;;;5054294;28;20533;-88
2020/12/04 07:12:38;;;;;;;34.47;20.40;;;;;;;;;;5053082;28;20180;-87
2020/12/04 07:15:10;;;;;;;35.00;20.47;;;;;;;;;;5052782;28;20185;-87
2020/12/04 07:17:41;;;;;;;31.10;18.17;;;;;;;;;;5053855;28;20201;-87
2020/12/04 07:20:10;;;;;;;34.27;19.80;;;;;;;;;;5054561;28;20211;-88
2020/12/04 07:22:40;;;;;;;29.03;17.53;;;;;;;;;;5053586;28;20208;-88
2020/12/04 07:25:11;;;;;;;31.03;19.77;;;;;;;;;;5053134;28;20182;-88
2020/12/04 07:27:41;;;;;;;30.23;20.13;;;;;;;;;;5053132;28;20215;-88
2020/12/04 07:30:25;;;;;;;30.40;19.13;;;;;;;;;;5053938;28;20178;-88
2020/12/04 07:32:56;;;;;;;35.93;19.20;;;;;;;;;;5054383;28;20165;-87
2020/12/04 07:35:26;;;;;;;33.97;20.53;;;;;;;;;;5052748;28;20176;-88
2020/12/04 07:38:00;;;;;;;31.50;20.13;;;;;;;;;;5052331;28;20203;-87
2020/12/04 07:40:36;;;;;;;32.97;19.13;;;;;;;;;;5054348;28;20560;-87
2020/12/04 07:43:12;;;;;;;31.93;19.50;;;;;;;;;;5052558;28;20204;-87
2020/12/04 07:45:43;;;;;;;30.33;19.80;;;;;;;;;;5052437;28;20235;-87
2020/12/04 07:48:18;;;;;;;32.77;18.03;;;;;;;;;;5052167;28;20196;-87
2020/12/04 07:50:48;;;;;;;34.67;18.77;;;;;;;;;;5052945;28;20628;-88
2020/12/04 07:53:19;;;;;;;34.17;21.87;;;;;;;;;;5056222;28;20260;-88
2020/12/04 07:55:53;;;;;;;34.27;21.30;;;;;;;;;;5055871;28;20180;-87
2020/12/04 07:58:22;;;;;;;33.30;18.87;;;;;;;;;;5056971;28;20203;-88
2020/12/04 08:00:49;;;;;;;35.13;19.73;;;;;;;;;;5057064;28;20176;-87
2020/12/04 08:03:17;;;;;;;30.97;20.00;;;;;;;;;;5056949;28;20180;-88
2020/12/04 08:05:49;;;;;;;32.53;19.53;;;;;;;;;;5055590;28;20187;-88
2020/12/04 08:08:25;;;;;;;30.73;19.73;;;;;;;;;;5055395;28;20204;-88
2020/12/04 08:11:10;;;;;;;34.83;21.50;;;;;;;;;;5057306;28;20176;-88
2020/12/04 08:13:41;;;;;;;33.30;19.33;;;;;;;;;;5057381;28;20549;-88
2020/12/04 08:16:11;;;;;;;32.90;19.73;;;;;;;;;;5056803;28;20170;-87
2020/12/04 08:18:41;;;;;;;34.27;19.67;;;;;;;;;;5056492;28;20198;-88
2020/12/04 08:21:13;;;;;;;33.37;20.23;;;;;;;;;;5055642;28;20173;-87
2020/12/04 08:23:45;;;;;;;32.23;18.13;;;;;;;;;;5057157;28;20169;-88
2020/12/04 08:26:19;;;;;;;37.67;20.37;;;;;;;;;;5055002;28;20201;-88
2020/12/04 08:28:57;;;;;;;35.83;20.70;;;;;;;;;;5056706;28;20206;-88
2020/12/04 08:31:29;;;;;;;35.23;21.43;;;;;;;;;;5056879;28;20239;-88
2020/12/04 08:33:59;;;;;;;36.80;20.33;;;;;;;;;;5057006;28;20176;-87
2020/12/04 08:36:26;;;;;;;30.43;19.00;;;;;;;;;;5055067;28;20649;-88
2020/12/04 08:38:54;;;;;;;33.30;18.73;;;;;;;;;;5056048;28;20200;-88
2020/12/04 08:41:36;;;;;;;32.60;19.10;;;;;;;;;;5054519;28;20184;-88
2020/12/04 08:44:11;;;;;;;33.73;20.23;;;;;;;;;;5054742;28;20187;-88
2020/12/04 08:46:41;;;;;;;32.13;20.10;;;;;;;;;;5056178;28;20197;-88
2020/12/04 08:49:11;;;;;;;33.67;19.07;;;;;;;;;;5054439;28;20592;-88
2020/12/04 08:51:51;;;;;;;32.60;19.63;;;;;;;;;;5056103;28;20177;-88
2020/12/04 08:54:17;;;;;;;35.50;20.30;;;;;;;;;;5054492;28;20172;-88
2020/12/04 08:56:58;;;;;;;38.03;20.43;;;;;;;;;;5055777;28;20185;-88
2020/12/04 08:59:25;;;;;;;29.97;19.33;;;;;;;;;;5054479;28;20195;-87
2020/12/04 09:01:57;;;;;;;34.70;20.17;;;;;;;;;;5055571;28;20181;-87
2020/12/04 09:04:28;;;;;;;29.60;18.47;;;;;;;;;;5053247;28;20197;-88
2020/12/04 09:06:59;;;;;;;32.43;18.50;;;;;;;;;;5055387;28;20206;-87
2020/12/04 09:09:30;;;;;;;29.33;17.80;;;;;;;;;;5055611;28;20172;-87
2020/12/04 09:12:02;;;;;;;30.87;20.03;;;;;;;;;;5054271;28;20173;-88
2020/12/04 09:14:36;;;;;;;31.60;19.17;;;;;;;;;;5054009;28;20520;-88
2020/12/04 09:17:08;;;;;;;32.00;19.33;;;;;;;;;;5054798;28;20667;-88
2020/12/04 09:19:40;;;;;;;28.27;18.60;;;;;;;;;;5053319;28;20188;-88
2020/12/04 09:22:14;;;;;;;30.23;18.60;;;;;;;;;;5054539;28;20205;-88
2020/12/04 09:24:43;;;;;;;34.87;19.97;;;;;;;;;;5054276;28;20574;-88
2020/12/04 09:27:15;;;;;;;33.10;20.43;;;;;;;;;;5053167;28;20217;-87
2020/12/04 09:29:45;;;;;;;33.10;19.37;;;;;;;;;;5053019;28;20263;-88
2020/12/04 09:32:21;;;;;;;35.17;19.37;;;;;;;;;;5053054;28;20174;-88
2020/12/04 09:34:48;;;;;;;32.20;19.93;;;;;;;;;;5054861;28;20501;-87
2020/12/04 09:37:20;;;;;;;32.90;20.13;;;;;;;;;;5053211;28;20208;-88
2020/12/04 09:39:54;;;;;;;32.77;20.90;;;;;;;;;;5053427;28;20553;-89
2020/12/04 09:42:23;;;;;;;30.93;18.67;;;;;;;;;;5054677;28;20174;-88
2020/12/04 09:44:54;;;;;;;32.33;19.73;;;;;;;;;;5054051;28;20176;-88
2020/12/04 09:47:25;;;;;;;31.73;17.23;;;;;;;;;;5054628;28;20227;-88
2020/12/04 09:49:58;;;;;;;31.80;19.20;;;;;;;;;;5052724;28;20263;-88
2020/12/04 09:52:24;;;;;;;32.90;19.07;;;;;;;;;;5053353;28;20184;-88
2020/12/04 09:54:51;;;;;;;30.47;18.37;;;;;;;;;;5059475;28;20176;-88
2020/12/04 09:57:24;;;;;;;33.43;18.80;;;;;;;;;;5053358;28;20227;-88
2020/12/04 09:59:52;;;;;;;31.93;18.47;;;;;;;;;;5053753;28;20177;-89
2020/12/04 10:02:21;;;;;;;32.33;18.47;;;;;;;;;;5052698;28;20616;-88
2020/12/04 10:04:48;;;;;;;32.93;17.60;;;;;;;;;;5053898;28;20275;-89
2020/12/04 10:07:18;;;;;;;31.73;19.13;;;;;;;;;;5054253;28;20213;-88
2020/12/04 10:09:47;;;;;;;29.80;18.83;;;;;;;;;;5052607;28;20645;-88
2020/12/04 10:12:17;;;;;;;30.20;19.43;;;;;;;;;;5052792;28;20187;-88
2020/12/04 10:14:48;;;;;;;30.30;18.57;;;;;;;;;;5053531;28;20186;-88
2020/12/04 10:17:21;;;;;;;29.37;19.00;;;;;;;;;;5053681;28;20194;-88
2020/12/04 10:19:51;;;;;;;27.80;17.70;;;;;;;;;;5052371;28;20179;-88
2020/12/04 10:22:18;;;;;;;29.50;19.13;;;;;;;;;;5053640;28;20177;-88
2020/12/04 10:24:47;;;;;;;29.30;18.90;;;;;;;;;;5052437;28;20641;-88
2020/12/04 10:27:19;;;;;;;33.83;17.30;;;;;;;;;;5053172;28;20683;-88
2020/12/04 10:29:48;;;;;;;29.17;18.23;;;;;;;;;;5052219;28;20194;-88
2020/12/04 10:32:18;;;;;;;31.17;18.87;;;;;;;;;;5053158;28;20178;-88
2020/12/04 10:34:55;;;;;;;28.93;17.87;;;;;;;;;;5053647;28;20170;-89
2020/12/04 10:37:21;;;;;;;30.43;17.03;;;;;;;;;;5052077;28;20199;-88
2020/12/04 10:39:56;;;;;;;31.67;19.50;;;;;;;;;;5052257;28;20182;-88
2020/12/04 10:42:30;;;;;;;30.33;18.57;;;;;;;;;;5053700;28;20608;-89
2020/12/04 10:45:06;;;;;;;28.60;18.07;;;;;;;;;;5140124;22;20274;-88
2020/12/04 10:47:35;;;;;;;28.17;18.63;;;;;;;;;;5051877;28;20201;-90
2020/12/04 10:50:06;;;;;;;28.13;18.20;;;;;;;;;;5052957;28;20661;-88
2020/12/04 10:52:37;;;;;;;31.90;18.43;;;;;;;;;;5051721;28;20170;-88
2020/12/04 10:55:03;;;;;;;32.10;18.17;;;;;;;;;;5051637;28;20690;-88
2020/12/04 10:57:30;;;;;;;29.97;17.30;;;;;;;;;;5052023;28;20203;-88
2020/12/04 10:59:59;;;;;;;26.30;17.43;;;;;;;;;;5054630;28;20164;-88
2020/12/04 11:02:30;;;;;;;27.90;17.37;;;;;;;;;;5051973;28;20187;-88
2020/12/04 11:07:50;;;;;;;27.70;18.17;;;;;;;;;;5052943;28;20237;-88
2020/12/04 11:10:20;;;;;;;31.37;17.07;;;;;;;;;;5052044;28;20263;-88
2020/12/04 11:12:51;;;;;;;31.03;19.03;;;;;;;;;;5052950;28;20169;-88
2020/12/04 11:15:24;;;;;;;31.67;19.23;;;;;;;;;;5051511;28;20259;-88
2020/12/04 11:17:59;;;;;;;26.70;17.20;;;;;;;;;;5053096;28;20171;-88
2020/12/04 11:20:33;;;;;;;29.27;17.57;;;;;;;;;;5052658;28;20254;-89
2020/12/04 11:23:05;;;;;;;27.80;17.93;;;;;;;;;;5052914;28;20353;-89
2020/12/04 11:25:38;;;;;;;27.97;17.20;;;;;;;;;;5051452;28;20199;-88
2020/12/04 11:28:13;;;;;;;24.67;16.17;;;;;;;;;;5054007;28;20263;-89
2020/12/04 11:30:45;;;;;;;28.30;17.57;;;;;;;;;;5056531;28;20709;-89
2020/12/04 11:33:13;;;;;;;28.43;17.70;;;;;;;;;;5055129;28;20286;-89
2020/12/04 11:35:45;;;;;;;26.97;17.00;;;;;;;;;;5055449;28;20241;-88
2020/12/04 11:38:15;;;;;;;30.03;18.23;;;;;;;;;;5056287;28;20172;-88
2020/12/04 11:40:46;;;;;;;28.50;17.30;;;;;;;;;;5056286;28;20277;-89
2020/12/04 11:43:18;;;;;;;31.73;18.47;;;;;;;;;;5056244;28;20667;-89
2020/12/04 11:45:49;;;;;;;27.70;16.57;;;;;;;;;;5056884;28;20670;-89
2020/12/04 11:48:21;;;;;;;25.13;16.43;;;;;;;;;;5055265;28;20172;-89
2020/12/04 11:50:47;;;;;;;31.03;17.40;;;;;;;;;;5055982;28;20175;-88
2020/12/04 11:53:14;;;;;;;30.00;17.97;;;;;;;;;;5056042;28;20203;-88
2020/12/04 11:55:41;;;;;;;26.70;16.70;;;;;;;;;;5056212;28;20176;-88
2020/12/04 11:58:10;;;;;;;31.40;16.93;;;;;;;;;;5056006;28;20230;-88
2020/12/04 12:00:36;;;;;;;31.30;17.57;;;;;;;;;;5056845;28;20175;-88
2020/12/04 12:03:03;;;;;;;27.73;16.57;;;;;;;;;;5058084;28;20230;-88
2020/12/04 12:05:29;;;;;;;28.73;17.13;;;;;;;;;;5057485;28;20172;-88
2020/12/04 12:07:59;;;;;;;29.57;18.00;;;;;;;;;;5059962;28;20243;-88
2020/12/04 12:10:30;;;;;;;32.07;17.70;;;;;;;;;;5056760;28;20179;-88
2020/12/04 12:12:59;;;;;;;30.40;17.67;;;;;;;;;;5056107;28;20246;-88
2020/12/04 12:15:30;;;;;;;26.60;16.03;;;;;;;;;;5055721;28;20222;-88
2020/12/04 12:17:59;;;;;;;27.80;16.20;;;;;;;;;;5055678;28;20176;-88
2020/12/04 12:20:29;;;;;;;27.30;15.83;;;;;;;;;;5056226;28;20670;-88
2020/12/04 12:22:58;;;;;;;27.60;16.53;;;;;;;;;;5055184;28;20180;-88
2020/12/04 12:25:27;;;;;;;28.83;17.70;;;;;;;;;;5058675;28;20686;-88
2020/12/04 12:27:58;;;;;;;27.57;18.17;;;;;;;;;;5057707;28;20777;-88
2020/12/04 12:30:28;;;;;;;24.00;16.10;;;;;;;;;;5055685;28;20186;-88
2020/12/04 12:32:55;;;;;;;26.53;17.30;;;;;;;;;;5057956;28;20569;-88
2020/12/04 12:35:22;;;;;;;28.73;16.33;;;;;;;;;;5055519;28;20179;-88
2020/12/04 12:37:53;;;;;;;27.70;16.50;;;;;;;;;;5054048;28;20307;-89
2020/12/04 12:40:30;;;;;;;25.93;17.03;;;;;;;;;;5053916;28;20202;-88
2020/12/04 12:43:06;;;;;;;27.07;16.67;;;;;;;;;;5054348;28;20325;-88
2020/12/04 12:45:39;;;;;;;28.40;17.60;;;;;;;;;;5055271;28;20176;-88
2020/12/04 12:48:10;;;;;;;28.13;17.70;;;;;;;;;;5053776;28;20527;-88
2020/12/04 12:50:40;;;;;;;26.23;16.50;;;;;;;;;;5053776;28;20255;-88
2020/12/04 12:53:10;;;;;;;29.50;18.07;;;;;;;;;;5053993;28;20208;-88
2020/12/04 12:55:41;;;;;;;31.30;16.37;;;;;;;;;;5055049;28;20179;-88
2020/12/04 12:58:11;;;;;;;28.30;16.47;;;;;;;;;;5055027;28;20553;-88
2020/12/04 13:00:42;;;;;;;25.83;16.40;;;;;;;;;;5053566;28;20181;-88
2020/12/04 13:03:10;;;;;;;29.80;16.97;;;;;;;;;;5055082;28;20196;-89
2020/12/04 13:05:40;;;;;;;28.60;16.37;;;;;;;;;;5053826;28;20179;-89
2020/12/04 13:08:11;;;;;;;25.07;15.93;;;;;;;;;;5054721;28;20751;-89
2020/12/04 13:10:42;;;;;;;28.57;17.47;;;;;;;;;;5053700;28;20194;-89
2020/12/04 13:13:13;;;;;;;24.87;15.77;;;;;;;;;;5054490;28;20199;-89
2020/12/04 13:15:49;;;;;;;26.00;16.57;;;;;;;;;;5053554;28;20176;-89
2020/12/04 13:18:24;;;;;;;30.97;17.07;;;;;;;;;;5053582;28;20540;-89
2020/12/04 13:20:56;;;;;;;27.27;16.13;;;;;;;;;;5053277;28;20643;-89
2020/12/04 13:23:27;;;;;;;29.27;15.37;;;;;;;;;;5054610;28;20571;-88
2020/12/04 13:25:57;;;;;;;26.07;16.80;;;;;;;;;;5053118;28;20230;-88
2020/12/04 13:28:31;;;;;;;26.70;16.27;;;;;;;;;;5054265;28;20168;-88
2020/12/04 13:31:01;;;;;;;31.83;17.80;;;;;;;;;;5054666;28;20160;-88
2020/12/04 13:33:31;;;;;;;31.13;17.73;;;;;;;;;;5052820;28;20196;-89
2020/12/04 13:35:58;;;;;;;24.47;17.27;;;;;;;;;;5052889;28;20186;-88
2020/12/04 13:38:33;;;;;;;30.00;17.33;;;;;;;;;;5052844;28;20171;-88
2020/12/04 13:41:02;;;;;;;28.03;17.63;;;;;;;;;;5053198;28;20539;-89
2020/12/04 13:43:28;;;;;;;26.40;15.77;;;;;;;;;;5053732;28;20664;-89
2020/12/04 13:45:57;;;;;;;28.30;17.43;;;;;;;;;;5052852;28;20201;-88
2020/12/04 13:48:26;;;;;;;31.83;18.90;;;;;;;;;;5053681;28;20180;-89
2020/12/04 13:50:54;;;;;;;29.90;17.93;;;;;;;;;;5051910;28;20644;-89
2020/12/04 13:53:22;;;;;;;29.73;18.67;;;;;;;;;;5052845;28;20207;-88
2020/12/04 13:55:51;;;;;;;27.73;17.63;;;;;;;;;;5054335;28;20168;-88
2020/12/04 13:58:22;;;;;;;31.30;18.90;;;;;;;;;;5054425;28;20176;-88
2020/12/04 14:00:54;;;;;;;31.43;18.90;;;;;;;;;;5052605;28;20176;-88
2020/12/04 14:03:29;;;;;;;28.30;18.47;;;;;;;;;;5053790;28;20187;-88
2020/12/04 14:06:01;;;;;;;28.77;18.70;;;;;;;;;;5053044;28;20182;-88
2020/12/04 14:08:35;;;;;;;31.17;19.47;;;;;;;;;;5053648;28;20790;-88
2020/12/04 14:11:08;;;;;;;34.00;19.60;;;;;;;;;;5052259;28;20170;-88
2020/12/04 14:13:40;;;;;;;32.03;18.53;;;;;;;;;;5052239;28;20656;-88
2020/12/04 14:16:10;;;;;;;30.47;19.43;;;;;;;;;;5052310;28;20186;-87
2020/12/04 14:18:41;;;;;;;32.67;18.97;;;;;;;;;;5053389;28;20175;-88
2020/12/04 14:21:14;;;;;;;31.03;18.97;;;;;;;;;;5052062;28;20186;-88
2020/12/04 14:23:46;;;;;;;32.33;20.10;;;;;;;;;;5052070;28;20191;-88
2020/12/04 14:26:21;;;;;;;29.63;20.07;;;;;;;;;;5052585;28;20282;-88
2020/12/04 14:28:51;;;;;;;28.13;18.47;;;;;;;;;;5053456;28;20163;-87
2020/12/04 14:31:24;;;;;;;27.83;16.97;;;;;;;;;;5052018;28;20172;-88
2020/12/04 14:33:56;;;;;;;29.70;17.87;;;;;;;;;;5052621;28;20211;-88
2020/12/04 14:36:27;;;;;;;30.17;18.40;;;;;;;;;;5053531;28;20167;-87
2020/12/04 14:41:40;;;;;;;31.70;18.93;;;;;;;;;;5053193;28;20183;-87
2020/12/04 14:44:14;;;;;;;29.60;18.10;;;;;;;;;;5051972;28;20235;-88
2020/12/04 14:46:43;;;;;;;29.93;18.43;;;;;;;;;;5052163;28;20198;-87
2020/12/04 14:49:17;;;;;;;31.47;17.97;;;;;;;;;;5051799;28;20647;-87